Time;durP1;ratioP1;P1;durP2;ratioP2;P2;SDS_P1;SDS_P2;PMS_P1;PMS_P2;Temp;Humidity;BMP_temperature;BMP_pressure;BME280_temperature;BME280_humidity;BME280_pressure;Samples;Min_cycle;Max_cycle;Signal;HPM_P1;HPM_P2
2023/10/02 00:01:10;;;;;;;7.45;5.40;;;;;;;24.32;51.58;101953.41;5019077;28;20053;-60
2023/10/02 00:03:39;;;;;;;7.18;5.45;;;;;;;24.32;51.75;101956.09;5034097;28;20057;-61
2023/10/02 00:06:09;;;;;;;7.10;4.95;;;;;;;24.31;51.85;101955.25;5032483;28;20049;-60
2023/10/02 00:08:48;;;;;;;6.90;5.53;;;;;;;24.31;51.54;101949.00;5034460;28;20057;-61
2023/10/02 00:11:37;;;;;;;8.13;5.60;;;;;;;24.31;51.90;101954.41;5033652;28;20045;-60
2023/10/02 00:14:20;;;;;;;6.32;5.20;;;;;;;24.31;51.57;101962.53;5002701;28;20487;-61
2023/10/02 00:16:59;;;;;;;6.97;4.97;;;;;;;24.29;51.61;101954.53;5014433;28;20046;-60
2023/10/02 00:19:28;;;;;;;6.13;5.25;;;;;;;24.30;51.90;101952.66;5024010;28;20500;-60
2023/10/02 00:21:57;;;;;;;6.85;5.65;;;;;;;24.29;51.52;101961.78;5019385;28;20065;-60
2023/10/02 00:24:26;;;;;;;6.32;4.85;;;;;;;24.30;51.90;101955.38;5019851;28;20125;-60
2023/10/02 00:26:57;;;;;;;5.90;5.28;;;;;;;24.29;51.51;101954.53;5019221;28;20589;-65
2023/10/02 00:29:26;;;;;;;6.47;5.80;;;;;;;24.29;51.48;101962.63;5023714;28;20046;-60
2023/10/02 00:31:55;;;;;;;5.40;4.72;;;;;;;24.30;51.54;101963.50;5018916;28;20480;-60
2023/10/02 00:34:32;;;;;;;6.50;4.80;;;;;;;24.30;51.80;101960.78;5020028;28;20049;-61
2023/10/02 00:37:05;;;;;;;5.30;4.60;;;;;;;24.29;51.80;101962.63;5022221;28;20085;-60
2023/10/02 00:39:35;;;;;;;7.07;5.32;;;;;;;24.29;51.74;101957.22;5004119;28;20053;-60
2023/10/02 00:42:16;;;;;;;6.68;5.40;;;;;;;24.28;51.82;101955.53;5020225;28;20046;-61
2023/10/02 00:44:51;;;;;;;6.13;5.35;;;;;;;24.29;51.63;101967.19;5020946;28;20412;-60
2023/10/02 00:47:42;;;;;;;5.90;4.97;;;;;;;24.28;51.55;101958.22;5020295;28;20064;-61
2023/10/02 00:50:19;;;;;;;5.47;4.60;;;;;;;24.28;51.65;101960.94;5012444;28;20056;-66
2023/10/02 00:53:03;;;;;;;4.85;4.35;;;;;;;24.29;51.54;101959.94;5019821;28;20061;-66
2023/10/02 00:55:35;;;;;;;5.78;5.00;;;;;;;24.28;51.81;101954.66;5018232;28;20058;-66
2023/10/02 00:58:08;;;;;;;6.00;5.40;;;;;;;24.28;51.90;101954.66;5018615;28;20072;-66
2023/10/02 01:00:37;;;;;;;5.97;5.38;;;;;;;24.27;51.86;101961.94;5021925;28;20041;-66
2023/10/02 01:03:14;;;;;;;5.30;4.50;;;;;;;24.28;51.81;101954.66;5019676;28;20491;-66
2023/10/02 01:05:47;;;;;;;6.88;5.03;;;;;;;24.27;51.58;101956.53;5011293;28;20049;-66
2023/10/02 01:08:42;;;;;;;6.78;5.22;;;;;;;24.27;51.64;101955.69;5002543;28;20061;-66
2023/10/02 01:11:14;;;;;;;6.43;5.53;;;;;;;24.27;51.48;101961.94;5017476;28;20061;-60
2023/10/02 01:13:42;;;;;;;5.50;4.95;;;;;;;24.27;51.81;101958.38;5010591;28;20053;-60
2023/10/02 01:16:13;;;;;;;5.90;5.18;;;;;;;24.27;51.64;101952.97;5000903;28;20054;-60
2023/10/02 01:18:41;;;;;;;5.63;5.03;;;;;;;24.26;51.51;101957.50;5031454;28;20052;-66
2023/10/02 01:21:11;;;;;;;5.25;4.50;;;;;;;24.26;51.61;101951.22;5013217;28;20057;-67
2023/10/02 01:24:08;;;;;;;5.68;4.82;;;;;;;24.25;51.75;101950.38;5031913;28;20404;-66
2023/10/02 01:26:37;;;;;;;5.28;4.38;;;;;;;24.26;51.81;101951.22;5027084;28;20389;-66
2023/10/02 01:29:06;;;;;;;5.30;4.78;;;;;;;24.26;51.75;101948.53;5029963;28;20049;-60
2023/10/02 01:31:44;;;;;;;5.35;4.85;;;;;;;24.26;51.51;101946.66;5031666;28;20053;-60
2023/10/02 01:37:32;;;;;;;5.75;5.15;;;;;;;24.25;51.83;101950.38;5033862;28;20065;-61
2023/10/02 01:40:28;;;;;;;5.70;4.85;;;;;;;24.25;51.64;101944.97;5028255;28;20080;-60
2023/10/02 01:42:40;;;;;;;5.63;5.13;;;;;;;24.24;51.83;101943.25;5026632;28;20053;-60
2023/10/02 01:45:08;;;;;;;6.00;5.40;;;;;;;24.24;51.79;101939.72;5031602;28;20072;-60
2023/10/02 01:47:41;;;;;;;6.18;5.13;;;;;;;24.25;51.85;101949.53;5031817;28;20045;-66
2023/10/02 01:50:09;;;;;;;5.10;4.60;;;;;;;24.24;51.66;101945.13;5030891;28;20057;-61
2023/10/02 01:52:37;;;;;;;5.93;4.50;;;;;;;24.23;51.48;101946.13;5035810;28;20053;-60
2023/10/02 01:55:29;;;;;;;5.85;5.28;;;;;;;24.25;51.78;101949.53;5021888;28;20500;-60
2023/10/02 01:58:16;;;;;;;6.03;5.43;;;;;;;24.24;51.65;101947.81;5028370;28;20053;-60
2023/10/02 02:00:45;;;;;;;5.18;4.68;;;;;;;24.24;51.91;101943.25;5013844;28;20049;-60
2023/10/02 02:03:15;;;;;;;6.05;4.95;;;;;;;24.24;51.71;101942.41;5030141;28;20045;-61
2023/10/02 02:05:46;;;;;;;6.28;4.95;;;;;;;24.25;51.70;101942.25;5029783;28;20056;-61
2023/10/02 02:08:23;;;;;;;5.20;4.53;;;;;;;24.25;52.11;101941.41;5029696;28;20401;-60
2023/10/02 02:10:54;;;;;;;5.72;4.63;;;;;;;24.26;51.74;101935.84;5030921;28;20414;-60
2023/10/02 02:13:22;;;;;;;7.22;5.43;;;;;;;24.26;51.93;101948.53;5029623;28;20045;-60
2023/10/02 02:16:07;;;;;;;10.27;5.38;;;;;;;24.26;51.86;101945.81;5005212;28;20053;-61
2023/10/02 02:18:35;;;;;;;6.78;5.05;;;;;;;24.25;52.13;101936.84;5017332;28;20534;-60
2023/10/02 02:21:02;;;;;;;5.47;4.90;;;;;;;24.24;51.97;101943.25;5029795;28;20053;-66
2023/10/02 02:23:31;;;;;;;6.97;5.88;;;;;;;24.24;51.96;101940.56;5030556;28;20050;-66
2023/10/02 02:25:59;;;;;;;7.53;5.53;;;;;;;24.24;51.98;101942.41;5018330;28;20050;-67
2023/10/02 02:28:28;;;;;;;5.45;4.82;;;;;;;24.24;51.60;101947.81;5030417;28;20050;-61
2023/10/02 02:30:56;;;;;;;6.38;5.35;;;;;;;24.24;51.68;101939.72;5030646;28;20041;-65
2023/10/02 02:33:38;;;;;;;5.55;4.90;;;;;;;24.24;51.64;101943.25;5029817;28;20049;-66
2023/10/02 02:36:05;;;;;;;5.60;4.95;;;;;;;24.25;51.89;101955.78;5013775;28;20395;-66
2023/10/02 02:38:33;;;;;;;6.43;4.63;;;;;;;24.25;51.46;101949.53;5028847;28;20057;-61
2023/10/02 02:41:07;;;;;;;5.78;4.88;;;;;;;24.25;51.83;101946.81;5029328;28;20066;-66
2023/10/02 02:43:38;;;;;;;5.95;4.57;;;;;;;24.25;51.88;101957.66;5028619;28;20488;-65
2023/10/02 02:46:17;;;;;;;5.57;5.03;;;;;;;24.25;51.83;101944.13;5030234;28;20415;-66
2023/10/02 02:48:44;;;;;;;5.95;4.53;;;;;;;24.25;51.93;101946.81;5030688;28;20480;-65
2023/10/02 02:51:15;;;;;;;6.93;5.15;;;;;;;24.24;51.68;101945.13;5022192;28;20411;-65
2023/10/02 02:53:43;;;;;;;6.93;4.97;;;;;;;24.24;51.88;101939.72;5032107;28;20050;-65
2023/10/02 02:56:22;;;;;;;5.85;5.07;;;;;;;24.24;51.61;101947.81;5034225;28;20056;-65
2023/10/02 02:58:55;;;;;;;5.43;4.68;;;;;;;24.24;51.52;101947.81;5030990;28;20068;-66
2023/10/02 03:01:23;;;;;;;;;;;;;;;24.21;51.64;101937.25;5037007;28;20061;-66
2023/10/02 03:03:51;;;;;;;7.18;5.35;;;;;;;24.21;51.67;101943.53;5034070;28;19932;-66
2023/10/02 03:06:23;;;;;;;6.88;4.90;;;;;;;24.22;51.56;101947.09;5033798;28;20049;-66
2023/10/02 03:08:51;;;;;;;5.18;4.60;;;;;;;24.22;51.49;101944.38;5024694;28;20050;-60
2023/10/02 03:11:22;;;;;;;7.03;5.22;;;;;;;24.21;51.53;101951.66;5021754;28;20053;-60
2023/10/02 03:13:50;;;;;;;5.57;4.90;;;;;;;24.21;51.74;101950.78;5021292;28;20038;-60
2023/10/02 03:16:28;;;;;;;6.30;5.18;;;;;;;24.21;51.51;101945.38;5013582;28;20034;-60
2023/10/02 03:18:57;;;;;;;6.55;4.95;;;;;;;24.20;51.75;101951.78;5019559;28;20057;-60
2023/10/02 03:21:24;;;;;;;6.63;4.90;;;;;;;24.20;51.82;101947.25;5020149;28;20045;-60
2023/10/02 03:23:54;;;;;;;5.47;4.72;;;;;;;24.21;51.58;101948.09;5021181;28;20050;-60
2023/10/02 03:26:26;;;;;;;5.40;4.78;;;;;;;24.20;51.58;101954.50;5017955;28;20053;-60
2023/10/02 03:29:03;;;;;;;6.28;5.45;;;;;;;24.20;51.41;101951.78;5019743;28;20062;-66
2023/10/02 03:31:43;;;;;;;5.85;4.72;;;;;;;24.20;51.48;101957.22;5021022;28;20054;-66
2023/10/02 03:34:33;;;;;;;7.00;5.43;;;;;;;24.20;51.35;101954.50;5017676;28;20046;-66
2023/10/02 03:39:59;;;;;;;6.07;4.90;;;;;;;24.20;51.55;101957.22;5032947;28;20053;-65
2023/10/02 03:42:36;;;;;;;6.22;4.60;;;;;;;24.18;51.57;101960.91;5030907;28;20045;-65
2023/10/02 03:45:04;;;;;;;5.68;5.03;;;;;;;24.18;51.80;101960.03;5018147;28;20479;-66
2023/10/02 03:47:35;;;;;;;5.68;5.07;;;;;;;24.18;51.36;101963.63;5034155;28;20056;-65
2023/10/02 03:50:11;;;;;;;5.07;4.57;;;;;;;24.17;51.56;101956.47;5033119;28;20045;-60
2023/10/02 03:52:41;;;;;;;6.63;4.70;;;;;;;24.17;51.41;101959.19;5038775;28;20421;-60
2023/10/02 03:55:15;;;;;;;6.10;4.32;;;;;;;24.18;51.47;101957.31;5028545;28;20049;-61
2023/10/02 03:57:55;;;;;;;5.45;4.85;;;;;;;24.17;51.58;101955.63;5032940;28;20048;-61
2023/10/02 04:00:27;;;;;;;5.57;4.72;;;;;;;24.18;51.42;101960.03;5028364;28;20057;-60
2023/10/02 04:02:57;;;;;;;5.25;4.75;;;;;;;24.17;51.42;101963.75;5033524;28;20053;-60
2023/10/02 04:05:44;;;;;;;5.63;5.03;;;;;;;24.17;51.71;101966.44;5032530;28;20052;-60
2023/10/02 04:08:36;;;;;;;5.30;4.80;;;;;;;24.17;51.63;101961.03;5029865;28;20053;-60
2023/10/02 04:11:04;;;;;;;4.93;4.43;;;;;;;24.15;51.58;101955.75;5032808;28;20045;-66
2023/10/02 04:13:34;;;;;;;6.68;4.85;;;;;;;24.16;51.52;101962.88;5025482;28;20057;-66
2023/10/02 04:18:58;;;;;;;6.10;5.50;;;;;;;24.15;51.47;101961.19;5000061;28;20057;-65
2023/10/02 04:21:28;;;;;;;6.18;4.53;;;;;;;24.14;51.33;101958.59;5022689;28;20049;-66
2023/10/02 04:23:57;;;;;;;7.13;4.95;;;;;;;24.15;51.38;101955.75;5020003;28;20048;-66
2023/10/02 04:26:28;;;;;;;6.43;4.90;;;;;;;24.15;51.46;101960.31;5020251;28;20053;-66
2023/10/02 04:29:09;;;;;;;5.53;4.85;;;;;;;24.16;51.31;101956.63;5021716;28;20057;-66
2023/10/02 04:31:41;;;;;;;5.15;4.63;;;;;;;24.14;51.50;101956.72;5021320;28;20055;-66
2023/10/02 04:34:29;;;;;;;5.10;4.60;;;;;;;24.14;51.66;101959.44;5011932;28;20046;-66
2023/10/02 04:36:57;;;;;;;5.75;5.15;;;;;;;24.14;51.42;101958.59;5022605;28;20050;-66
2023/10/02 04:42:15;;;;;;;6.28;4.63;;;;;;;24.13;51.33;101952.31;5019597;28;20408;-61
2023/10/02 04:44:45;;;;;;;6.43;5.07;;;;;;;24.14;51.39;101950.47;5024190;28;20046;-60
2023/10/02 04:47:17;;;;;;;5.93;4.95;;;;;;;24.12;51.26;101945.22;5022314;28;20392;-60
2023/10/02 04:55:41;;;;;;;6.05;4.95;;;;;;;24.04;50.48;101958.56;5022234;28;20045;-66
2023/10/02 04:58:14;;;;;;;5.90;5.30;;;;;;;24.00;49.92;101961.69;5019390;28;20061;-67
2023/10/02 05:03:36;;;;;;;8.25;5.97;;;;;;;23.93;49.63;101972.16;5018619;28;20045;-66
2023/10/02 05:06:06;;;;;;;6.10;5.50;;;;;;;23.90;49.33;101976.00;5019395;28;20053;-67
2023/10/02 05:08:41;;;;;;;6.03;5.43;;;;;;;23.86;49.31;101970.97;5021716;28;20415;-66
2023/10/02 05:11:23;;;;;;;6.90;5.80;;;;;;;23.85;49.15;101977.38;5020634;28;20424;-63
2023/10/02 05:16:32;;;;;;;6.97;6.18;;;;;;;23.79;49.35;101986.06;5022217;28;20053;-63
2023/10/02 05:19:05;;;;;;;6.60;5.82;;;;;;;23.77;49.03;101977.19;5002356;28;20043;-63
2023/10/02 05:21:39;;;;;;;6.20;5.57;;;;;;;23.75;49.14;101984.59;5012864;28;20050;-63
2023/10/02 05:24:12;;;;;;;7.35;6.05;;;;;;;23.73;49.33;101982.00;5021169;28;20046;-63
2023/10/02 05:26:41;;;;;;;;;;;;;;;23.69;49.44;101977.88;5021128;28;20045;-63
2023/10/02 05:31:58;;;;;;;6.60;6.00;;;;;;;23.67;49.31;101985.28;5019825;28;20052;-63
2023/10/02 05:34:26;;;;;;;6.90;6.30;;;;;;;23.67;49.54;101991.53;5023570;28;20041;-63
2023/10/02 05:39:39;;;;;;;7.15;6.10;;;;;;;23.64;49.35;101994.47;5037780;28;20415;-67
2023/10/02 05:42:13;;;;;;;6.38;5.78;;;;;;;23.63;49.32;101987.34;5024784;28;20049;-67
2023/10/02 05:44:43;;;;;;;8.38;6.00;;;;;;;23.64;49.61;101985.50;5025703;28;20046;-67
2023/10/02 05:47:17;;;;;;;7.15;6.35;;;;;;;23.62;49.48;101991.03;5028147;28;20048;-67
2023/10/02 05:49:47;;;;;;;7.22;6.03;;;;;;;23.62;49.51;102004.56;5029337;28;20423;-62
2023/10/02 05:52:18;;;;;;;7.30;5.90;;;;;;;23.60;49.33;102000.25;5027271;28;20496;-63
2023/10/02 05:54:53;;;;;;;7.72;5.88;;;;;;;23.59;49.25;102004.81;5015245;28;20041;-63
2023/10/02 05:57:31;;;;;;;8.18;5.97;;;;;;;23.58;49.28;102008.50;5024785;28;20053;-63
2023/10/02 06:00:00;;;;;;;6.78;5.93;;;;;;;23.58;49.08;102004.97;5027887;28;20053;-67
2023/10/02 06:02:31;;;;;;;7.70;5.80;;;;;;;23.58;49.08;102010.38;5035231;28;20077;-67
2023/10/02 06:05:11;;;;;;;7.97;6.18;;;;;;;23.58;49.33;102013.91;5029143;28;20045;-67
2023/10/02 06:07:40;;;;;;;7.10;6.35;;;;;;;23.59;49.25;102006.66;5028170;28;20049;-66
2023/10/02 06:10:25;;;;;;;7.00;6.30;;;;;;;23.60;49.29;102013.78;5025827;28;20045;-63
2023/10/02 06:13:05;;;;;;;6.72;5.93;;;;;;;23.59;49.37;102015.63;5029091;28;20049;-63
2023/10/02 06:15:51;;;;;;;6.95;5.93;;;;;;;23.62;49.09;102018.06;5024209;28;20044;-63
2023/10/02 06:18:27;;;;;;;7.00;6.30;;;;;;;23.63;49.05;102016.22;5021142;28;20038;-63
2023/10/02 06:21:03;;;;;;;6.28;5.57;;;;;;;23.65;49.14;102022.34;5018979;28;20045;-67
2023/10/02 06:23:37;;;;;;;6.32;5.72;;;;;;;23.66;49.54;102018.72;5027693;28;20380;-67
2023/10/02 06:26:11;;;;;;;7.97;6.63;;;;;;;23.67;49.16;102026.69;5026301;28;20380;-67
2023/10/02 06:28:39;;;;;;;7.00;5.70;;;;;;;23.68;49.13;102028.38;5028951;28;20053;-66
2023/10/02 06:31:08;;;;;;;7.28;6.57;;;;;;;23.71;49.48;102034.53;5028861;28;20068;-67
2023/10/02 06:33:38;;;;;;;7.43;6.60;;;;;;;23.72;49.22;102028.97;5025811;28;20050;-67
2023/10/02 06:36:09;;;;;;;8.48;6.95;;;;;;;23.73;49.40;102036.09;5026933;28;20046;-66
2023/10/02 06:38:36;;;;;;;7.18;6.47;;;;;;;23.74;49.22;102031.53;4981961;28;1337651;-62
2023/10/02 06:41:08;;;;;;;7.20;6.47;;;;;;;23.76;49.28;102037.69;5029178;28;20053;-62
2023/10/02 06:43:35;;;;;;;8.68;6.55;;;;;;;23.78;49.47;102041.09;5022951;28;20050;-62
2023/10/02 06:46:16;;;;;;;7.10;6.40;;;;;;;23.78;49.54;102039.28;5028794;28;20057;-63
2023/10/02 06:48:43;;;;;;;7.03;6.32;;;;;;;23.79;49.60;102049.09;5029139;28;20057;-67
2023/10/02 06:51:14;;;;;;;7.70;6.43;;;;;;;23.83;49.60;102052.41;5027346;28;20041;-67
2023/10/02 06:53:43;;;;;;;7.55;5.75;;;;;;;23.84;49.85;102059.53;5031527;28;20050;-67
2023/10/02 06:56:11;;;;;;;6.70;5.80;;;;;;;23.85;50.33;102053.97;5023786;28;20042;-61
2023/10/02 06:58:54;;;;;;;8.38;6.47;;;;;;;23.89;50.27;102057.28;5020635;28;20050;-65
2023/10/02 07:01:30;;;;;;;6.72;6.05;;;;;;;23.92;50.55;102062.41;5023522;28;20072;-62
2023/10/02 07:04:08;;;;;;;6.55;5.65;;;;;;;23.98;50.66;102059.16;5029158;28;20046;-64
2023/10/02 07:06:39;;;;;;;6.25;5.65;;;;;;;24.03;50.70;102065.06;5031620;28;20045;-63
2023/10/02 07:09:10;;;;;;;7.35;6.20;;;;;;;24.06;50.30;102053.09;5014656;28;20484;-58
2023/10/02 07:11:42;;;;;;;6.80;5.75;;;;;;;24.09;50.38;102063.66;5017538;28;20045;-59
2023/10/02 07:14:10;;;;;;;6.07;5.47;;;;;;;24.14;50.52;102062.25;5017545;28;20515;-60
2023/10/02 07:16:38;;;;;;;6.55;5.88;;;;;;;24.16;50.46;102065.69;5020707;28;20045;-61
2023/10/02 07:19:05;;;;;;;7.60;6.25;;;;;;;24.18;50.06;102063.72;5014725;28;20046;-58
2023/10/02 07:21:35;;;;;;;7.63;5.88;;;;;;;24.22;50.20;102071.56;4996961;28;20038;-59
2023/10/02 07:24:04;;;;;;;6.28;5.68;;;;;;;24.24;50.27;102069.59;5015637;28;20045;-59
2023/10/02 07:26:51;;;;;;;6.28;5.65;;;;;;;24.26;49.81;102067.59;5021394;28;20045;-58
2023/10/02 07:29:19;;;;;;;7.65;6.32;;;;;;;24.28;49.79;102068.34;5010573;28;20042;-63
2023/10/02 07:31:47;;;;;;;5.90;5.30;;;;;;;24.30;49.94;102067.19;5017988;28;20050;-66
2023/10/02 07:34:15;;;;;;;7.15;6.22;;;;;;;24.31;50.24;102066.22;5015524;28;20512;-63
2023/10/02 07:36:46;;;;;;;8.07;6.45;;;;;;;24.32;50.51;102067.06;5022556;28;20053;-60
2023/10/02 07:39:35;;;;;;;6.70;5.72;;;;;;;24.34;50.18;102073.19;5031297;28;20057;-58
2023/10/02 07:42:06;;;;;;;7.22;5.60;;;;;;;24.31;50.39;102081.59;5026868;28;20056;-60
2023/10/02 07:44:38;;;;;;;7.10;5.75;;;;;;;24.30;50.52;102077.16;5017934;28;20050;-63
2023/10/02 07:47:11;;;;;;;5.93;4.93;;;;;;;24.31;50.72;102073.47;5028583;28;20490;-63
2023/10/02 07:49:40;;;;;;;7.35;5.80;;;;;;;24.32;50.63;102069.78;5019643;28;20054;-60
2023/10/02 07:52:08;;;;;;;8.80;6.63;;;;;;;24.31;50.44;102066.22;5031444;28;20056;-66
2023/10/02 07:54:44;;;;;;;6.72;5.28;;;;;;;24.31;50.70;102074.34;5021741;28;20041;-65
2023/10/02 07:57:13;;;;;;;6.97;5.97;;;;;;;24.32;50.73;102076.03;5030563;28;20052;-62
2023/10/02 07:59:43;;;;;;;7.57;6.38;;;;;;;24.34;50.91;102084.00;5022656;28;20050;-60
2023/10/02 08:02:23;;;;;;;7.18;6.00;;;;;;;24.34;50.70;102084.88;5031396;28;20048;-62
2023/10/02 08:04:54;;;;;;;7.63;5.70;;;;;;;24.34;50.47;102079.44;5018538;28;20049;-62
2023/10/02 08:07:24;;;;;;;7.82;5.80;;;;;;;24.35;50.41;102083.91;5030902;28;20053;-60
2023/10/02 08:10:13;;;;;;;9.93;6.18;;;;;;;24.37;50.57;102087.31;5021023;28;20060;-65
2023/10/02 08:12:54;;;;;;;7.88;5.68;;;;;;;24.38;50.37;102077.38;5031323;28;20052;-66
2023/10/02 08:15:26;;;;;;;7.95;5.55;;;;;;;24.39;50.61;102081.81;5030893;28;20045;-61
2023/10/02 08:20:32;;;;;;;7.03;6.05;;;;;;;24.40;50.70;102078.09;5021649;28;20054;-62
2023/10/02 08:23:02;;;;;;;9.05;6.18;;;;;;;24.42;50.43;102074.25;5000603;28;20050;-60
2023/10/02 08:25:33;;;;;;;9.35;6.22;;;;;;;24.44;50.22;102078.69;5022865;28;20053;-65
2023/10/02 08:28:00;;;;;;;8.45;6.28;;;;;;;24.45;50.39;102075.00;5019032;28;20049;-66
2023/10/02 08:30:31;;;;;;;7.97;5.95;;;;;;;24.42;50.25;102079.66;5015989;28;20057;-68
2023/10/02 08:33:09;;;;;;;7.47;6.18;;;;;;;24.40;49.56;102072.69;5026000;28;20054;-67
2023/10/02 08:36:09;;;;;;;8.55;6.93;;;;;;;24.36;49.52;102071.22;5017019;28;20068;-65
2023/10/02 08:38:40;;;;;;;9.95;8.23;;;;;;;24.31;49.07;102068.91;5020580;28;20476;-60
2023/10/02 08:41:08;;;;;;;6.90;6.10;;;;;;;24.27;49.15;102077.44;5020931;28;20072;-65
2023/10/02 08:43:42;;;;;;;9.38;7.35;;;;;;;24.18;49.11;102074.56;5019725;28;20046;-60
2023/10/02 08:46:19;;;;;;;7.32;6.43;;;;;;;24.10;48.90;102076.19;5018590;28;20122;-63
2023/10/02 08:48:54;;;;;;;8.95;6.90;;;;;;;24.03;48.66;102073.19;5021567;28;20045;-61
2023/10/02 08:51:49;;;;;;;8.10;6.43;;;;;;;24.03;48.82;102069.63;5019885;28;20069;-63
2023/10/02 08:54:18;;;;;;;9.65;6.70;;;;;;;24.06;48.82;102072.03;5017568;28;20064;-61
2023/10/02 08:57:01;;;;;;;7.07;5.43;;;;;;;24.09;48.89;102064.50;5017849;28;20407;-65
2023/10/02 08:59:35;;;;;;;6.85;5.75;;;;;;;24.13;49.20;102065.09;5017765;28;20468;-60
2023/10/02 09:02:15;;;;;;;6.82;6.15;;;;;;;24.19;49.25;102064.59;5019310;28;20054;-59
2023/10/02 09:04:51;;;;;;;6.72;5.30;;;;;;;24.24;49.03;102072.28;5014416;28;20050;-60
2023/10/02 09:07:45;;;;;;;6.07;5.43;;;;;;;24.26;49.37;102063.03;5016758;28;20126;-61
2023/10/02 09:13:11;;;;;;;6.60;5.22;;;;;;;24.35;48.94;102058.69;5020154;28;20053;-62
2023/10/02 09:15:44;;;;;;;6.90;5.60;;;;;;;24.37;49.33;102056.69;5009507;28;20058;-59
2023/10/02 09:18:33;;;;;;;6.43;5.50;;;;;;;24.39;48.89;102054.75;5021835;28;20061;-64
2023/10/02 09:21:14;;;;;;;6.72;5.45;;;;;;;24.42;49.05;102054.44;5014603;28;20046;-60
2023/10/02 09:23:51;;;;;;;6.50;5.68;;;;;;;24.43;49.12;102056.19;4998755;28;20053;-57
2023/10/02 09:26:30;;;;;;;7.43;6.40;;;;;;;24.46;49.05;102057.75;5018284;28;20623;-58
2023/10/02 09:29:03;;;;;;;7.20;5.15;;;;;;;24.48;49.06;102058.50;5016267;28;20050;-58
2023/10/02 09:31:35;;;;;;;7.35;5.13;;;;;;;24.49;48.74;102055.63;5018068;28;20061;-59
2023/10/02 09:34:16;;;;;;;8.37;5.53;;;;;;;24.51;49.16;102048.25;5021768;28;20056;-59
2023/10/02 09:37:11;;;;;;;5.25;4.75;;;;;;;24.52;49.16;102040.97;5018052;28;20440;-59
2023/10/02 09:40:03;;;;;;;6.18;5.40;;;;;;;24.53;48.98;102045.38;5028256;28;20053;-60
2023/10/02 09:42:33;;;;;;;;;;;;;;;24.52;48.86;102031.00;5023382;28;20530;-60
2023/10/02 09:45:08;;;;;;;6.30;5.13;;;;;;;24.53;48.91;102035.41;5027454;28;19920;-61
2023/10/02 09:47:37;;;;;;;6.22;4.97;;;;;;;24.56;48.73;102042.41;5027042;28;20053;-60
2023/10/02 09:50:29;;;;;;;6.15;5.00;;;;;;;24.56;48.98;102034.28;5020048;28;20479;-59
2023/10/02 09:53:08;;;;;;;6.15;5.30;;;;;;;24.55;48.89;102028.03;5027764;28;20499;-60
2023/10/02 09:56:01;;;;;;;6.68;4.93;;;;;;;24.57;48.77;102031.44;5027827;28;20049;-60
2023/10/02 09:58:37;;;;;;;8.27;5.65;;;;;;;24.56;48.71;102027.03;5020089;28;20072;-63
2023/10/02 10:03:54;;;;;;;5.70;4.93;;;;;;;24.58;48.73;102022.31;5024720;28;20049;-60
2023/10/02 10:06:29;;;;;;;6.72;5.28;;;;;;;24.59;48.65;102020.47;5025401;28;20049;-63
2023/10/02 10:11:45;;;;;;;6.10;5.25;;;;;;;24.60;48.85;102014.06;5026031;28;20075;-63
2023/10/02 10:14:37;;;;;;;6.00;5.40;;;;;;;24.61;48.64;102010.38;5024388;28;20046;-61
2023/10/02 10:17:16;;;;;;;8.63;5.05;;;;;;;24.61;48.64;102011.22;5028138;28;20041;-61
2023/10/02 10:20:18;;;;;;;6.30;5.70;;;;;;;24.63;48.56;102009.25;5027139;28;20041;-62
2023/10/02 10:22:56;;;;;;;6.60;5.90;;;;;;;24.63;48.75;102011.06;5006879;28;20072;-62
2023/10/02 10:25:32;;;;;;;6.22;5.50;;;;;;;24.63;48.67;102005.66;5006237;28;20049;-64
2023/10/02 10:28:05;;;;;;;6.30;5.68;;;;;;;24.63;48.38;102000.22;5023863;28;20046;-63
2023/10/02 10:30:43;;;;;;;7.28;6.10;;;;;;;24.62;48.61;102004.78;5028133;28;20049;-60
2023/10/02 10:35:51;;;;;;;6.70;5.88;;;;;;;24.61;49.10;101994.13;5019544;28;20399;-59
2023/10/02 10:38:36;;;;;;;6.70;5.60;;;;;;;24.61;49.50;101994.13;5015752;28;20096;-60
2023/10/02 10:41:14;;;;;;;8.52;5.70;;;;;;;24.61;49.72;101988.69;5025280;28;20049;-61
2023/10/02 10:46:28;;;;;;;7.90;5.88;;;;;;;24.60;49.75;101989.69;5027808;28;20392;-60
2023/10/02 10:49:10;;;;;;;;;;;;;;;24.57;49.70;101982.72;5023392;28;20496;-61
2023/10/02 10:51:38;;;;;;;7.43;6.05;;;;;;;24.59;49.77;101982.56;5022343;28;19921;-60
2023/10/02 10:54:19;;;;;;;6.85;5.90;;;;;;;24.58;49.89;101980.84;5027663;28;20427;-60
2023/10/02 10:56:58;;;;;;;5.95;5.07;;;;;;;24.58;50.00;101983.56;5031762;28;20048;-59
2023/10/02 10:59:32;;;;;;;6.57;5.77;;;;;;;24.59;50.02;101985.25;5024479;28;20049;-62
2023/10/02 11:02:17;;;;;;;6.68;5.75;;;;;;;24.57;50.11;101977.28;5007837;28;20404;-62
2023/10/02 11:04:47;;;;;;;6.60;5.78;;;;;;;24.57;50.05;101971.88;5013526;28;20484;-60
2023/10/02 11:07:23;;;;;;;7.60;5.72;;;;;;;24.57;50.28;101968.31;5019856;28;20052;-60
2023/10/02 11:10:17;;;;;;;9.73;6.35;;;;;;;24.57;50.11;101971.03;5012604;28;20046;-63
2023/10/02 11:12:57;;;;;;;7.43;6.57;;;;;;;24.55;50.16;101963.06;5021546;28;20057;-58
2023/10/02 11:18:21;;;;;;;7.22;6.43;;;;;;;24.59;50.34;101969.91;5021106;28;20037;-61
2023/10/02 11:20:51;;;;;;;8.75;7.05;;;;;;;24.60;50.03;101963.47;5019317;28;20057;-63
2023/10/02 11:23:44;;;;;;;10.63;6.38;;;;;;;24.59;50.33;101964.50;5013393;28;20069;-63
2023/10/02 11:26:13;;;;;;;7.00;6.10;;;;;;;24.56;50.61;101959.34;5000071;28;20046;-63
2023/10/02 11:28:44;;;;;;;6.78;5.85;;;;;;;24.54;51.14;101953.19;5021145;28;20418;-62
2023/10/02 11:31:29;;;;;;;6.70;5.88;;;;;;;24.52;51.54;101952.50;5021108;28;20046;-63
2023/10/02 11:34:02;;;;;;;8.20;6.30;;;;;;;24.51;51.65;101945.38;5017753;28;20053;-62
2023/10/02 11:36:53;;;;;;;7.13;6.03;;;;;;;24.50;52.01;101940.09;5017938;28;20049;-65
2023/10/02 11:39:27;;;;;;;6.53;5.90;;;;;;;24.49;52.25;101939.22;5015876;28;20064;-63
2023/10/02 11:41:55;;;;;;;6.07;5.45;;;;;;;24.48;52.18;101940.22;5020748;28;20060;-62
2023/10/02 11:44:23;;;;;;;6.60;5.70;;;;;;;24.48;52.30;101934.81;5021070;28;20057;-62
2023/10/02 11:46:50;;;;;;;7.18;5.55;;;;;;;24.48;52.06;101928.56;5020456;28;20065;-62
2023/10/02 11:49:18;;;;;;;8.20;5.47;;;;;;;24.46;52.49;101925.97;5015918;28;20053;-63
2023/10/02 11:51:45;;;;;;;7.88;6.05;;;;;;;24.46;51.94;101920.53;5020704;28;20065;-63
2023/10/02 11:54:13;;;;;;;7.47;5.55;;;;;;;24.46;52.02;101917.00;5020373;28;20050;-63
2023/10/02 11:56:42;;;;;;;6.50;5.90;;;;;;;24.45;52.32;101920.69;5020483;28;20045;-62
2023/10/02 11:59:14;;;;;;;7.25;6.00;;;;;;;24.45;51.58;101918.84;5015546;28;20053;-62
2023/10/02 12:01:47;;;;;;;8.57;6.35;;;;;;;24.44;51.50;101913.59;5020307;28;20046;-62
2023/10/02 12:04:15;;;;;;;7.50;5.57;;;;;;;24.44;51.50;101914.44;5011497;28;20042;-59
2023/10/02 12:06:43;;;;;;;6.00;5.40;;;;;;;24.48;51.60;101917.72;5008977;28;20061;-60
2023/10/02 12:09:17;;;;;;;8.73;6.10;;;;;;;24.50;51.03;101905.75;5017504;28;20049;-60
2023/10/02 12:11:45;;;;;;;6.30;5.70;;;;;;;24.52;50.43;101894.78;5021811;28;20045;-61
2023/10/02 12:21:26;;;;;;;7.60;4.63;;;;;;;24.48;49.63;101896.91;5052199;28;20902;-58
2023/10/02 12:23:53;;;;;;;6.68;5.18;;;;;;;24.48;49.53;101880.69;5067136;28;20391;-59
2023/10/02 12:26:20;;;;;;;6.63;5.40;;;;;;;24.51;49.65;101879.53;5033068;28;20053;-60
2023/10/02 12:28:49;;;;;;;6.00;5.15;;;;;;;24.52;49.26;101882.09;5042944;28;20403;-58
2023/10/02 12:31:20;;;;;;;7.30;5.40;;;;;;;24.55;49.25;101881.84;5048557;28;20480;-61
2023/10/02 12:33:52;;;;;;;5.60;4.85;;;;;;;24.57;48.90;101874.41;5049840;28;20056;-59
2023/10/02 12:36:22;;;;;;;5.82;4.70;;;;;;;24.58;48.92;101868.00;5040288;28;20045;-58
2023/10/02 12:38:50;;;;;;;6.22;5.18;;;;;;;24.59;49.01;101864.31;5049750;28;20049;-60
2023/10/02 12:41:25;;;;;;;7.28;5.40;;;;;;;24.62;48.69;101861.28;5049481;28;20041;-58
2023/10/02 12:43:56;;;;;;;6.50;5.22;;;;;;;24.63;48.75;101868.44;5049826;28;20034;-59
2023/10/02 12:46:28;;;;;;;5.85;5.13;;;;;;;24.64;48.68;101863.88;5049393;28;20056;-63
2023/10/02 12:48:57;;;;;;;6.82;5.43;;;;;;;24.65;48.29;101866.44;5049541;28;20064;-57
2023/10/02 12:51:25;;;;;;;5.68;5.05;;;;;;;24.66;48.31;101861.88;5049892;28;20045;-57
2023/10/02 12:53:53;;;;;;;5.43;4.93;;;;;;;24.66;48.53;101862.72;5049226;28;20041;-61